LZB971 LBSF-LBWN
Flight info
| Callsign | LZB971 |
|---|---|
| Flight time | N/A |
| Altitude | 27000 |
| Route | UMPIT4S/09 UMPIT T343 DICXA |
| Aircraft | A320/M-SDE3FGHIRWY/LB1 |
Departure
| Time | 2026-04-28 18:14 |
|---|---|
| Airport | Sofia Airport (LBSF) |
Arrival
| Time | N/A |
|---|---|
| Airport | Varna Airport (LBWN) |
| Time | Latitude | Longitude | Altitude | Speed | Heading |
|---|---|---|---|---|---|
| 2026-04-28 17:48 | 42.69034 | 23.40520 | 1746 ft | 0 kts | 197° |
| 2026-04-28 18:10 | 42.68997 | 23.40491 | 1742 ft | 9 kts | 243° |
| 2026-04-28 18:10 | 42.69006 | 23.40408 | 1741 ft | 10 kts | 285° |
| 2026-04-28 18:11 | 42.69031 | 23.40311 | 1743 ft | 12 kts | 310° |
| 2026-04-28 18:11 | 42.69112 | 23.40322 | 1749 ft | 13 kts | 17° |
| 2026-04-28 18:11 | 42.69206 | 23.40360 | 1744 ft | 15 kts | 17° |
| 2026-04-28 18:11 | 42.69315 | 23.40405 | 1748 ft | 17 kts | 18° |
| 2026-04-28 18:12 | 42.69435 | 23.40455 | 1748 ft | 18 kts | 14° |
| 2026-04-28 18:12 | 42.69537 | 23.40512 | 1739 ft | 13 kts | 46° |
| 2026-04-28 18:12 | 42.69573 | 23.40612 | 1747 ft | 11 kts | 64° |
| 2026-04-28 18:12 | 42.69608 | 23.40713 | 1747 ft | 15 kts | 65° |
| 2026-04-28 18:13 | 42.69660 | 23.40862 | 1742 ft | 15 kts | 51° |
| 2026-04-28 18:13 | 42.69697 | 23.40914 | 1747 ft | 6 kts | 92° |
| 2026-04-28 18:13 | 42.69689 | 23.41055 | 1749 ft | 31 kts | 93° |
| 2026-04-28 18:13 | 42.69649 | 23.41702 | 1752 ft | 103 kts | 94° |
| 2026-04-28 18:14 | 42.69575 | 23.42945 | 1755 ft | 158 kts | 95° |
| 2026-04-28 18:14 | 42.69522 | 23.44502 | 2316 ft | 163 kts | 82° |
| 2026-04-28 18:14 | 42.69754 | 23.45985 | 3045 ft | 161 kts | 62° |
| 2026-04-28 18:14 | 42.70074 | 23.47449 | 3674 ft | 161 kts | 71° |
| 2026-04-28 18:15 | 42.70455 | 23.48958 | 3996 ft | 179 kts | 62° |
| 2026-04-28 18:15 | 42.70945 | 23.50559 | 4503 ft | 185 kts | 61° |
| 2026-04-28 18:15 | 42.71393 | 23.52211 | 5090 ft | 188 kts | 73° |
| 2026-04-28 18:15 | 42.71694 | 23.53998 | 5535 ft | 197 kts | 75° |
| 2026-04-28 18:16 | 42.71972 | 23.55790 | 6280 ft | 189 kts | 75° |
| 2026-04-28 18:16 | 42.72228 | 23.57479 | 7003 ft | 176 kts | 74° |
| 2026-04-28 18:16 | 42.72466 | 23.59061 | 7595 ft | 170 kts | 74° |
| 2026-04-28 18:16 | 42.72706 | 23.60625 | 8086 ft | 168 kts | 74° |
| 2026-04-28 18:17 | 42.72948 | 23.62196 | 8490 ft | 174 kts | 75° |
| 2026-04-28 18:17 | 42.73215 | 23.63912 | 8676 ft | 196 kts | 75° |
| 2026-04-28 18:17 | 42.73514 | 23.65833 | 8853 ft | 219 kts | 75° |
| 2026-04-28 18:17 | 42.73845 | 23.67956 | 9017 ft | 241 kts | 75° |
| 2026-04-28 18:18 | 42.74202 | 23.70273 | 9235 ft | 258 kts | 76° |
| 2026-04-28 18:18 | 42.74586 | 23.72781 | 9493 ft | 283 kts | 76° |
| 2026-04-28 18:18 | 42.74996 | 23.75457 | 9915 ft | 300 kts | 76° |
| 2026-04-28 18:18 | 42.75285 | 23.77358 | 10276 ft | 310 kts | 76° |
| 2026-04-28 18:19 | 42.75896 | 23.81356 | 10563 ft | 341 kts | 76° |
| 2026-04-28 18:19 | 42.76393 | 23.84625 | 10823 ft | 362 kts | 77° |
| 2026-04-28 18:19 | 42.76904 | 23.88017 | 11450 ft | 369 kts | 77° |
| 2026-04-28 18:19 | 42.77419 | 23.91458 | 12126 ft | 374 kts | 77° |
| 2026-04-28 18:20 | 42.77942 | 23.94943 | 12853 ft | 377 kts | 76° |
| 2026-04-28 18:20 | 42.78471 | 23.98460 | 13548 ft | 382 kts | 76° |
| 2026-04-28 18:20 | 42.79008 | 24.02022 | 14200 ft | 386 kts | 76° |
| 2026-04-28 18:20 | 42.79552 | 24.05625 | 14838 ft | 391 kts | 76° |
| 2026-04-28 18:21 | 42.80102 | 24.09275 | 15432 ft | 395 kts | 76° |
| 2026-04-28 18:21 | 42.80654 | 24.12959 | 16046 ft | 399 kts | 76° |
| 2026-04-28 18:21 | 42.81207 | 24.16678 | 16663 ft | 403 kts | 76° |
| 2026-04-28 18:21 | 42.81763 | 24.20435 | 17257 ft | 407 kts | 76° |
| 2026-04-28 18:22 | 42.82323 | 24.24225 | 17857 ft | 410 kts | 75° |
| 2026-04-28 18:22 | 42.82892 | 24.28055 | 18419 ft | 414 kts | 75° |
| 2026-04-28 18:22 | 42.83464 | 24.31916 | 18917 ft | 417 kts | 75° |
| 2026-04-28 18:22 | 42.84038 | 24.35806 | 19420 ft | 420 kts | 75° |
| 2026-04-28 18:23 | 42.84615 | 24.39726 | 19906 ft | 424 kts | 75° |
| 2026-04-28 18:23 | 42.85194 | 24.43677 | 20364 ft | 427 kts | 75° |
| 2026-04-28 18:23 | 42.85770 | 24.47612 | 20825 ft | 430 kts | 75° |
| 2026-04-28 18:23 | 42.86366 | 24.51671 | 21345 ft | 432 kts | 75° |
| 2026-04-28 18:24 | 42.86949 | 24.55645 | 21841 ft | 435 kts | 75° |
| 2026-04-28 18:24 | 42.87350 | 24.58389 | 22131 ft | 438 kts | 75° |
| 2026-04-28 18:24 | 42.88142 | 24.63857 | 22735 ft | 442 kts | 75° |
| 2026-04-28 18:24 | 42.88728 | 24.67926 | 23186 ft | 444 kts | 75° |
| 2026-04-28 18:25 | 42.89323 | 24.72070 | 23621 ft | 447 kts | 75° |
| 2026-04-28 18:25 | 42.89923 | 24.76243 | 23994 ft | 450 kts | 75° |
| 2026-04-28 18:25 | 42.90528 | 24.80439 | 24364 ft | 452 kts | 75° |
| 2026-04-28 18:26 | 42.91735 | 24.88885 | 25111 ft | 456 kts | 75° |
| 2026-04-28 18:26 | 42.92334 | 24.93138 | 25470 ft | 458 kts | 75° |
| 2026-04-28 18:26 | 42.92934 | 24.97414 | 25842 ft | 459 kts | 75° |
| 2026-04-28 18:26 | 42.93536 | 25.01705 | 26193 ft | 462 kts | 75° |
| 2026-04-28 18:27 | 42.94141 | 25.06017 | 26539 ft | 464 kts | 75° |
| 2026-04-28 18:27 | 42.94749 | 25.10348 | 26883 ft | 467 kts | 75° |
| 2026-04-28 18:27 | 42.95362 | 25.14712 | 27041 ft | 469 kts | 75° |
| 2026-04-28 18:27 | 42.95974 | 25.19086 | 27066 ft | 470 kts | 75° |
| 2026-04-28 18:28 | 42.96584 | 25.23464 | 27064 ft | 470 kts | 75° |
| 2026-04-28 18:28 | 42.97193 | 25.27845 | 27070 ft | 470 kts | 75° |
| 2026-04-28 18:28 | 42.97802 | 25.32231 | 27070 ft | 470 kts | 75° |
| 2026-04-28 18:28 | 42.98408 | 25.36615 | 27071 ft | 470 kts | 75° |
| 2026-04-28 18:29 | 42.99013 | 25.40996 | 27072 ft | 470 kts | 75° |
| 2026-04-28 18:29 | 42.99616 | 25.45384 | 27078 ft | 470 kts | 75° |
| 2026-04-28 18:29 | 43.00214 | 25.49772 | 27077 ft | 470 kts | 75° |
| 2026-04-28 18:29 | 43.00807 | 25.54161 | 27079 ft | 470 kts | 75° |
| 2026-04-28 18:30 | 43.01399 | 25.58549 | 27082 ft | 470 kts | 75° |
| 2026-04-28 18:30 | 43.01591 | 25.59972 | 27089 ft | 470 kts | 75° |
| 2026-04-28 18:30 | 43.02586 | 25.67330 | 27075 ft | 470 kts | 75° |
| 2026-04-28 18:30 | 43.03179 | 25.71722 | 27074 ft | 470 kts | 75° |
| 2026-04-28 18:31 | 43.03771 | 25.76112 | 27067 ft | 470 kts | 75° |
| 2026-04-28 18:31 | 43.04366 | 25.80508 | 27075 ft | 470 kts | 75° |
| 2026-04-28 18:31 | 43.04967 | 25.84896 | 27069 ft | 470 kts | 75° |
| 2026-04-28 18:31 | 43.05572 | 25.89285 | 26786 ft | 469 kts | 75° |
| 2026-04-28 18:32 | 43.06182 | 25.93704 | 25446 ft | 479 kts | 75° |
| 2026-04-28 18:32 | 43.06802 | 25.98193 | 24602 ft | 479 kts | 76° |
| 2026-04-28 18:32 | 43.07414 | 26.02648 | 23892 ft | 475 kts | 76° |
| 2026-04-28 18:32 | 43.08018 | 26.07078 | 23092 ft | 472 kts | 76° |
| 2026-04-28 18:33 | 43.08611 | 26.11469 | 22422 ft | 467 kts | 76° |
| 2026-04-28 18:33 | 43.09186 | 26.15758 | 21740 ft | 462 kts | 76° |
| 2026-04-28 18:33 | 43.09762 | 26.20057 | 21108 ft | 457 kts | 77° |
| 2026-04-28 18:33 | 43.10335 | 26.24317 | 20498 ft | 452 kts | 77° |
| 2026-04-28 18:34 | 43.10904 | 26.28535 | 19735 ft | 451 kts | 77° |
| 2026-04-28 18:34 | 43.11471 | 26.32740 | 19172 ft | 446 kts | 77° |
| 2026-04-28 18:34 | 43.12026 | 26.36888 | 18616 ft | 441 kts | 77° |
| 2026-04-28 18:34 | 43.12571 | 26.40997 | 18045 ft | 436 kts | 77° |
| 2026-04-28 18:35 | 43.13107 | 26.45053 | 17505 ft | 430 kts | 77° |
| 2026-04-28 18:35 | 43.13633 | 26.49050 | 16971 ft | 424 kts | 77° |
| 2026-04-28 18:35 | 43.14152 | 26.52994 | 16428 ft | 419 kts | 77° |
| 2026-04-28 18:35 | 43.14667 | 26.56901 | 15892 ft | 415 kts | 77° |
| 2026-04-28 18:36 | 43.15179 | 26.60769 | 15337 ft | 411 kts | 77° |
| 2026-04-28 18:36 | 43.15685 | 26.64610 | 14789 ft | 409 kts | 77° |